Time;durP1;ratioP1;P1;durP2;ratioP2;P2;SDS_P1;SDS_P2;PMS_P1;PMS_P2;Temp;Humidity;BMP_temperature;BMP_pressure;BME280_temperature;BME280_humidity;BME280_pressure;Samples;Min_cycle;Max_cycle;Signal;HPM_P1;HPM_P2
2023/12/07 00:01:19;;;;;;;3.53;1.10;;;7.20;99.90;;;;;;5048569;28;20193;-75
2023/12/07 00:03:45;;;;;;;4.97;1.57;;;;;;;;;;5046557;28;20180;-75
2023/12/07 00:06:11;;;;;;;2.57;0.90;;;7.20;99.90;;;;;;5049327;28;20264;-76
2023/12/07 00:08:37;;;;;;;3.67;1.40;;;7.20;99.90;;;;;;5046334;28;20303;-75
2023/12/07 00:11:03;;;;;;;4.67;1.50;;;;;;;;;;5049969;28;20181;-73
2023/12/07 00:13:28;;;;;;;4.43;1.30;;;7.20;99.90;;;;;;5045989;28;20185;-72
2023/12/07 00:15:54;;;;;;;3.53;1.20;;;7.20;99.90;;;;;;5050160;28;20209;-74
2023/12/07 00:18:20;;;;;;;3.97;1.10;;;;;;;;;;5042074;28;20189;-74
2023/12/07 00:20:46;;;;;;;2.97;1.00;;;7.10;99.90;;;;;;5031541;28;20209;-74
2023/12/07 00:23:11;;;;;;;7.97;1.30;;;7.20;99.90;;;;;;5043703;28;20214;-74
2023/12/07 00:25:38;;;;;;;1.27;0.93;;;7.20;99.90;;;;;;5046932;28;20177;-74
2023/12/07 00:28:05;;;;;;;3.17;1.33;;;7.10;99.90;;;;;;5046492;28;20201;-74
2023/12/07 00:30:30;;;;;;;4.33;1.20;;;7.10;99.90;;;;;;5042711;28;20268;-74
2023/12/07 00:32:56;;;;;;;4.37;1.40;;;7.10;99.90;;;;;;5047960;28;20602;-74
2023/12/07 00:35:22;;;;;;;4.60;1.20;;;7.20;99.90;;;;;;5048971;28;20213;-74
2023/12/07 00:37:48;;;;;;;4.53;1.27;;;7.10;99.90;;;;;;5054290;28;20196;-73
2023/12/07 00:40:14;;;;;;;3.00;1.10;;;6.90;99.90;;;;;;5067872;28;20173;-74
2023/12/07 00:42:40;;;;;;;4.70;1.20;;;6.90;99.90;;;;;;5055858;28;20233;-74
2023/12/07 00:45:06;;;;;;;3.83;1.07;;;7.20;99.90;;;;;;5047023;28;20185;-74
2023/12/07 00:47:31;;;;;;;5.57;1.30;;;7.30;99.90;;;;;;5049792;28;20648;-74
2023/12/07 00:49:57;;;;;;;4.67;1.20;;;7.10;99.90;;;;;;5045096;28;20185;-74
2023/12/07 00:52:23;;;;;;;4.43;1.00;;;7.40;99.90;;;;;;5028452;28;20188;-74
2023/12/07 00:54:48;;;;;;;3.23;1.20;;;7.00;99.90;;;;;;5047268;28;20170;-74
2023/12/07 00:57:14;;;;;;;2.73;0.83;;;7.30;99.90;;;;;;5046747;28;20577;-75
2023/12/07 00:59:40;;;;;;;3.60;1.30;;;7.20;99.90;;;;;;5048776;28;20201;-74
2023/12/07 01:02:06;;;;;;;2.10;0.97;;;7.00;99.90;;;;;;5042149;28;20232;-74
2023/12/07 01:04:33;;;;;;;2.43;0.90;;;6.90;99.90;;;;;;5049087;28;20268;-75
2023/12/07 01:06:59;;;;;;;2.90;1.03;;;7.20;99.90;;;;;;5037573;28;20196;-74
2023/12/07 01:09:25;;;;;;;2.50;1.00;;;7.20;99.90;;;;;;5046063;28;20185;-74
2023/12/07 01:11:51;;;;;;;2.20;0.83;;;7.10;99.90;;;;;;5045562;28;20174;-73
2023/12/07 01:14:17;;;;;;;1.67;1.00;;;7.00;99.90;;;;;;5038004;28;20185;-75
2023/12/07 01:16:44;;;;;;;2.47;1.00;;;7.50;99.90;;;;;;5029017;28;20208;-74
2023/12/07 01:19:10;;;;;;;5.07;1.57;;;6.90;99.90;;;;;;5046938;28;20180;-73
2023/12/07 01:21:36;;;;;;;2.73;1.00;;;7.20;99.90;;;;;;5045669;28;20178;-74
2023/12/07 01:24:02;;;;;;;2.47;0.90;;;6.80;99.90;;;;;;5046284;28;20574;-73
2023/12/07 01:26:28;;;;;;;4.47;0.67;;;7.20;99.90;;;;;;5048262;28;20184;-73
2023/12/07 01:28:53;;;;;;;2.17;0.80;;;7.10;99.90;;;;;;5047354;28;20671;-73
2023/12/07 01:31:19;;;;;;;3.77;1.30;;;7.20;99.90;;;;;;5030254;28;20229;-74
2023/12/07 01:33:44;;;;;;;3.23;0.67;;;6.80;99.90;;;;;;5046183;28;20252;-73
2023/12/07 01:36:11;;;;;;;3.63;1.07;;;7.20;99.90;;;;;;5034646;28;20212;-74
2023/12/07 01:38:36;;;;;;;3.60;1.00;;;7.10;99.90;;;;;;5048774;28;20166;-73
2023/12/07 01:41:02;;;;;;;2.67;1.00;;;7.10;99.90;;;;;;5052426;28;20204;-73
2023/12/07 01:43:28;;;;;;;2.70;1.00;;;7.10;99.90;;;;;;5048390;28;20580;-74
2023/12/07 01:45:56;;;;;;;5.97;1.10;;;7.10;99.90;;;;;;5050104;28;20177;-74
2023/12/07 01:48:24;;;;;;;3.87;0.90;;;7.10;99.90;;;;;;5050546;28;20656;-75
2023/12/07 01:50:51;;;;;;;4.90;1.00;;;7.10;99.90;;;;;;5048037;28;20208;-75
2023/12/07 01:53:17;;;;;;;2.13;0.77;;;7.10;99.90;;;;;;5051017;28;20174;-76
2023/12/07 01:55:45;;;;;;;3.90;0.80;;;7.20;99.90;;;;;;5050070;28;20282;-75
2023/12/07 01:58:11;;;;;;;2.07;1.07;;;6.80;99.90;;;;;;5033996;28;20196;-74
2023/12/07 02:00:36;;;;;;;5.97;0.90;;;7.10;99.90;;;;;;5045887;28;20722;-74
2023/12/07 02:03:05;;;;;;;3.40;0.90;;;6.30;99.90;;;;;;5051339;28;20264;-73
2023/12/07 02:05:32;;;;;;;3.10;0.90;;;;;;;;;;5051296;28;20177;-73
2023/12/07 02:07:58;;;;;;;1.63;0.63;;;7.10;99.90;;;;;;5046535;28;20188;-74
2023/12/07 02:10:24;;;;;;;2.20;0.90;;;7.20;99.90;;;;;;5048261;28;20182;-74
2023/12/07 02:12:51;;;;;;;2.73;0.93;;;7.10;99.90;;;;;;5052421;28;20189;-74
2023/12/07 02:15:17;;;;;;;0.87;0.47;;;7.20;99.90;;;;;;5047767;28;20216;-76
2023/12/07 02:17:46;;;;;;;3.10;0.80;;;7.20;99.90;;;;;;5052393;28;20275;-74
2023/12/07 02:20:39;;;;;;;2.77;1.00;;;7.20;99.90;;;;;;5043209;28;20718;-74
2023/12/07 02:23:07;;;;;;;1.53;0.63;;;7.30;99.90;;;;;;5052115;28;20177;-74
2023/12/07 02:25:44;;;;;;;2.63;0.80;;;7.30;99.90;;;;;;5047073;28;20185;-74
2023/12/07 02:28:09;;;;;;;3.73;0.90;;;7.20;99.90;;;;;;5051103;28;20180;-74
2023/12/07 02:30:35;;;;;;;2.40;0.90;;;7.50;99.90;;;;;;5029966;28;20227;-74
2023/12/07 02:33:01;;;;;;;2.20;0.80;;;7.30;99.90;;;;;;5048606;28;20188;-74
2023/12/07 02:35:28;;;;;;;1.30;0.50;;;7.40;99.90;;;;;;5046767;28;20215;-74
2023/12/07 02:37:55;;;;;;;2.43;0.80;;;7.70;99.90;;;;;;5049397;28;20181;-73
2023/12/07 02:40:23;;;;;;;1.27;0.70;;;7.60;99.90;;;;;;5029635;28;20182;-74
2023/12/07 02:42:50;;;;;;;1.57;0.50;;;7.40;99.90;;;;;;5037010;28;20751;-74
2023/12/07 02:45:16;;;;;;;0.87;0.60;;;7.50;99.90;;;;;;5030621;28;20185;-74
2023/12/07 02:47:43;;;;;;;3.10;0.60;;;7.70;99.90;;;;;;5048778;28;20189;-74
2023/12/07 02:50:09;;;;;;;0.83;0.50;;;7.60;99.90;;;;;;5049616;28;20185;-77
2023/12/07 02:52:35;;;;;;;1.37;0.47;;;7.90;99.90;;;;;;5050285;28;20181;-75
2023/12/07 02:55:02;;;;;;;1.03;0.50;;;7.90;99.90;;;;;;5049939;28;20242;-73
2023/12/07 02:57:29;;;;;;;1.23;0.80;;;7.90;99.90;;;;;;5042213;28;20218;-73
2023/12/07 02:59:55;;;;;;;3.93;0.83;;;8.20;99.90;;;;;;5045743;28;20173;-75
2023/12/07 03:02:21;;;;;;;1.90;0.83;;;7.90;99.90;;;;;;5040487;28;20181;-75
2023/12/07 03:04:47;;;;;;;1.50;0.87;;;8.10;99.90;;;;;;5051609;28;20185;-74
2023/12/07 03:07:12;;;;;;;1.03;0.73;;;8.10;99.90;;;;;;5065270;28;20184;-74
2023/12/07 03:09:38;;;;;;;3.40;0.87;;;8.10;99.90;;;;;;5053500;28;20181;-74
2023/12/07 03:12:04;;;;;;;1.07;0.50;;;9.20;99.90;;;;;;5048069;28;20213;-75
2023/12/07 03:14:30;;;;;;;0.40;0.37;;;8.20;99.90;;;;;;5051388;28;20603;-75
2023/12/07 03:16:56;;;;;;;1.83;0.43;;;8.40;99.90;;;;;;5045564;28;20691;-74
2023/12/07 03:19:21;;;;;;;0.80;0.40;;;8.30;99.90;;;;;;5046343;28;20173;-74
2023/12/07 03:21:47;;;;;;;1.03;0.60;;;8.40;99.90;;;;;;5048711;28;20287;-75
2023/12/07 03:24:13;;;;;;;0.43;0.30;;;8.50;99.90;;;;;;5050033;28;20192;-76
2023/12/07 03:26:38;;;;;;;1.17;0.50;;;8.40;99.90;;;;;;5046185;28;20542;-75
2023/12/07 03:29:04;;;;;;;1.60;0.50;;;8.40;99.90;;;;;;5046330;28;20578;-75
2023/12/07 03:31:30;;;;;;;0.67;0.40;;;8.50;99.90;;;;;;5049747;28;20719;-74
2023/12/07 03:33:56;;;;;;;0.90;0.30;;;8.20;99.90;;;;;;5044187;28;20245;-75
2023/12/07 03:36:22;;;;;;;1.97;0.50;;;8.60;99.90;;;;;;5047740;28;20262;-74
2023/12/07 03:38:48;;;;;;;1.43;0.37;;;8.70;99.90;;;;;;5046461;28;20632;-76
2023/12/07 03:41:14;;;;;;;0.63;0.30;;;8.30;99.90;;;;;;5031837;28;20364;-76
2023/12/07 03:43:40;;;;;;;1.10;0.40;;;8.50;99.90;;;;;;5045836;28;20690;-75
2023/12/07 03:46:07;;;;;;;0.47;0.17;;;8.50;99.90;;;;;;5047663;28;20189;-75
2023/12/07 03:48:33;;;;;;;0.20;0.20;;;8.60;99.90;;;;;;5048443;28;20196;-76
2023/12/07 03:50:59;;;;;;;0.87;0.20;;;8.70;99.90;;;;;;5050619;28;20258;-75
2023/12/07 03:53:25;;;;;;;0.70;0.30;;;8.10;99.90;;;;;;5049035;28;20181;-74
2023/12/07 03:55:50;;;;;;;0.87;0.30;;;8.80;99.90;;;;;;5050283;28;20250;-74
2023/12/07 03:58:16;;;;;;;0.40;0.27;;;8.50;99.90;;;;;;5047274;28;20192;-74
2023/12/07 04:00:44;;;;;;;0.93;0.23;;;8.60;99.90;;;;;;5045723;28;20201;-75
2023/12/07 04:03:10;;;;;;;0.37;0.20;;;8.70;99.90;;;;;;5030326;28;20189;-75
2023/12/07 04:05:36;;;;;;;0.53;0.20;;;8.50;99.90;;;;;;5050167;28;20220;-75
2023/12/07 04:08:01;;;;;;;0.20;0.20;;;8.50;99.90;;;;;;5044168;28;20651;-75
2023/12/07 04:10:27;;;;;;;0.10;0.10;;;8.50;99.90;;;;;;5045745;28;20653;-75
2023/12/07 04:12:53;;;;;;;0.20;0.20;;;8.80;99.90;;;;;;5029292;28;20655;-75
2023/12/07 04:15:19;;;;;;;0.10;0.10;;;8.70;99.90;;;;;;5030402;28;20198;-75
2023/12/07 04:17:45;;;;;;;0.47;0.20;;;8.70;99.90;;;;;;5046773;28;20223;-75
2023/12/07 04:20:12;;;;;;;0.00;0.00;;;8.50;99.90;;;;;;5048884;28;20258;-75
2023/12/07 04:22:39;;;;;;;0.10;0.10;;;8.60;99.90;;;;;;5028601;28;20188;-75
2023/12/07 04:25:05;;;;;;;0.77;0.30;;;8.60;99.90;;;;;;5046112;28;20177;-74
2023/12/07 04:27:31;;;;;;;2.10;0.20;;;9.00;99.90;;;;;;5045563;28;20178;-75
2023/12/07 04:29:57;;;;;;;0.27;0.10;;;8.70;99.90;;;;;;5049540;28;20212;-74
2023/12/07 04:32:22;;;;;;;0.10;0.10;;;8.60;99.90;;;;;;5047870;28;20674;-74
2023/12/07 04:34:48;;;;;;;0.50;0.20;;;8.40;99.90;;;;;;5049409;28;20177;-73
2023/12/07 04:37:14;;;;;;;0.20;0.10;;;8.70;99.90;;;;;;5046054;28;20313;-73
2023/12/07 04:39:39;;;;;;;0.20;0.10;;;8.50;99.90;;;;;;5048471;28;20172;-74
2023/12/07 04:42:05;;;;;;;0.33;0.20;;;8.60;99.90;;;;;;5043324;28;20230;-73
2023/12/07 04:44:31;;;;;;;1.27;0.23;;;8.70;99.90;;;;;;5047117;28;20611;-73
2023/12/07 04:46:57;;;;;;;0.10;0.10;;;;;;;;;;5044862;28;20265;-73
2023/12/07 04:49:22;;;;;;;0.20;0.10;;;8.80;99.90;;;;;;5046306;28;20170;-73
2023/12/07 04:51:48;;;;;;;0.30;0.10;;;;;;;;;;5048852;28;20592;-73
2023/12/07 04:54:14;;;;;;;0.47;0.10;;;8.70;99.90;;;;;;5045299;28;20189;-71
2023/12/07 04:56:43;;;;;;;0.10;0.10;;;8.90;99.90;;;;;;5046244;28;20729;-72
2023/12/07 04:59:09;;;;;;;0.10;0.10;;;8.80;99.90;;;;;;5044358;28;20182;-73
2023/12/07 05:01:36;;;;;;;0.13;0.10;;;8.90;99.90;;;;;;5048410;28;20247;-73
2023/12/07 05:04:03;;;;;;;1.50;0.17;;;8.60;99.90;;;;;;5044696;28;20234;-73
2023/12/07 05:06:32;;;;;;;0.30;0.10;;;8.70;99.90;;;;;;5048444;28;20591;-73
2023/12/07 05:08:58;;;;;;;0.40;0.27;;;8.60;99.90;;;;;;5026637;28;20186;-73
2023/12/07 05:11:24;;;;;;;0.10;0.07;;;8.30;99.90;;;;;;5049682;28;20181;-74
2023/12/07 05:13:49;;;;;;;0.60;0.20;;;8.80;99.90;;;;;;5046554;28;20197;-73
2023/12/07 05:16:15;;;;;;;0.27;0.10;;;8.50;99.90;;;;;;5046991;28;20690;-72
2023/12/07 05:18:41;;;;;;;0.20;0.10;;;8.70;99.90;;;;;;5044811;28;20185;-74
2023/12/07 05:21:07;;;;;;;0.23;0.10;;;8.70;99.90;;;;;;5045691;28;20185;-73
2023/12/07 05:23:33;;;;;;;0.17;0.17;;;8.90;99.90;;;;;;5048360;28;20169;-73
2023/12/07 05:25:59;;;;;;;0.30;0.10;;;8.60;99.90;;;;;;5045754;28;20619;-72
2023/12/07 05:28:26;;;;;;;0.23;0.07;;;8.40;99.90;;;;;;5045999;28;20177;-73
2023/12/07 05:30:52;;;;;;;0.00;0.00;;;8.50;99.90;;;;;;5044672;28;20173;-74
2023/12/07 05:33:19;;;;;;;0.27;0.20;;;8.70;99.90;;;;;;5047133;28;20639;-74
2023/12/07 05:35:45;;;;;;;0.20;0.10;;;8.70;99.90;;;;;;5063694;28;20211;-73
2023/12/07 05:38:11;;;;;;;0.20;0.10;;;8.40;99.90;;;;;;5060602;28;20648;-73
2023/12/07 05:40:36;;;;;;;1.07;0.10;;;8.40;99.90;;;;;;5044516;28;20192;-74
2023/12/07 05:43:03;;;;;;;0.23;0.13;;;8.80;99.90;;;;;;5047049;28;20213;-74
2023/12/07 05:45:29;;;;;;;0.17;0.10;;;8.70;99.90;;;;;;5044416;28;20303;-74
2023/12/07 05:47:55;;;;;;;0.30;0.13;;;8.70;99.90;;;;;;5045897;28;20178;-74
2023/12/07 05:50:21;;;;;;;0.23;0.10;;;8.60;99.90;;;;;;5029982;28;20188;-74
2023/12/07 05:52:46;;;;;;;0.20;0.20;;;8.70;99.90;;;;;;5044875;28;20184;-73
2023/12/07 05:55:13;;;;;;;0.17;0.17;;;8.80;99.90;;;;;;5045732;28;20228;-74
2023/12/07 05:57:39;;;;;;;1.60;0.20;;;8.50;99.90;;;;;;5043959;28;20196;-73
2023/12/07 06:00:09;;;;;;;0.90;0.20;;;7.80;99.90;;;;;;5045482;28;20173;-74
2023/12/07 06:02:35;;;;;;;0.87;0.17;;;8.70;99.90;;;;;;5043958;28;20185;-74
2023/12/07 06:05:03;;;;;;;0.67;0.30;;;;;;;;;;5048084;28;20173;-74
2023/12/07 06:07:29;;;;;;;0.50;0.20;;;8.80;99.90;;;;;;5043588;28;20180;-74
2023/12/07 06:09:55;;;;;;;0.93;0.20;;;;;;;;;;5045483;28;20204;-74
2023/12/07 06:12:24;;;;;;;1.10;0.30;;;8.60;99.90;;;;;;5045901;28;20280;-75
2023/12/07 06:14:50;;;;;;;0.47;0.20;;;8.50;99.90;;;;;;5047247;28;20177;-74
2023/12/07 06:17:16;;;;;;;0.53;0.30;;;8.50;99.90;;;;;;5046018;28;20217;-74
2023/12/07 06:19:42;;;;;;;0.37;0.20;;;8.60;99.90;;;;;;5049191;28;20180;-73
2023/12/07 06:22:08;;;;;;;1.70;0.40;;;7.50;99.90;;;;;;5048025;28;20265;-74
2023/12/07 06:24:34;;;;;;;0.37;0.20;;;8.70;99.90;;;;;;5049096;28;20217;-74
2023/12/07 06:27:01;;;;;;;0.20;0.20;;;8.30;99.90;;;;;;5051735;28;20193;-75
2023/12/07 06:29:27;;;;;;;0.70;0.30;;;8.30;99.90;;;;;;5048049;28;20220;-74
2023/12/07 06:31:53;;;;;;;0.20;0.20;;;8.50;99.90;;;;;;5031025;28;20227;-74
2023/12/07 06:34:19;;;;;;;1.00;0.23;;;8.60;99.90;;;;;;5044093;28;20189;-73
2023/12/07 06:36:45;;;;;;;1.73;0.50;;;;;;;;;;5051774;28;20213;-74
2023/12/07 06:39:11;;;;;;;1.97;0.37;;;8.50;99.90;;;;;;5047766;28;20186;-74
2023/12/07 06:41:37;;;;;;;1.00;0.20;;;8.70;99.90;;;;;;5047884;28;20790;-75
2023/12/07 06:44:02;;;;;;;0.20;0.13;;;8.70;99.90;;;;;;5031969;28;20204;-74
2023/12/07 06:46:28;;;;;;;0.30;0.20;;;8.70;99.90;;;;;;5051679;28;20184;-75
2023/12/07 06:48:54;;;;;;;1.27;0.40;;;8.50;99.90;;;;;;5046588;28;20303;-75
2023/12/07 06:51:20;;;;;;;0.40;0.20;;;8.80;99.90;;;;;;5048860;28;20193;-74
2023/12/07 06:53:45;;;;;;;1.93;0.37;;;8.80;99.90;;;;;;5051114;28;20189;-74
2023/12/07 06:56:11;;;;;;;0.67;0.20;;;8.80;99.90;;;;;;5048710;28;20544;-74
2023/12/07 06:58:37;;;;;;;1.07;0.30;;;8.60;99.90;;;;;;5053165;28;20178;-75
2023/12/07 07:01:03;;;;;;;0.40;0.23;;;8.70;99.90;;;;;;5048351;28;20648;-75
2023/12/07 07:03:28;;;;;;;1.73;0.30;;;8.40;99.90;;;;;;5051624;28;20169;-73
2023/12/07 07:05:59;;;;;;;0.40;0.10;;;8.70;99.90;;;;;;5046694;28;20571;-75
2023/12/07 07:08:24;;;;;;;0.17;0.10;;;8.60;99.90;;;;;;5048385;28;20656;-75
2023/12/07 07:10:50;;;;;;;0.50;0.37;;;8.80;99.90;;;;;;5048385;28;20180;-75
2023/12/07 07:13:16;;;;;;;0.60;0.40;;;8.70;99.90;;;;;;5049400;28;20682;-75
2023/12/07 07:15:47;;;;;;;0.23;0.20;;;8.60;99.90;;;;;;5046162;28;20209;-75
2023/12/07 07:18:13;;;;;;;0.87;0.43;;;8.70;99.90;;;;;;5047772;28;20177;-75
2023/12/07 07:20:39;;;;;;;0.97;0.27;;;8.90;99.90;;;;;;5049870;28;20690;-76
2023/12/07 07:23:05;;;;;;;0.27;0.10;;;8.80;99.90;;;;;;5047969;28;20193;-75
2023/12/07 07:25:30;;;;;;;0.70;0.30;;;9.10;99.90;;;;;;5046957;28;20655;-75
2023/12/07 07:27:56;;;;;;;1.33;0.40;;;8.70;99.90;;;;;;5046603;28;20227;-73
2023/12/07 07:30:22;;;;;;;0.93;0.13;;;9.00;99.90;;;;;;5051045;28;20201;-75
2023/12/07 07:32:48;;;;;;;2.60;0.40;;;8.70;99.90;;;;;;5045254;28;20285;-76
2023/12/07 07:35:14;;;;;;;2.00;0.40;;;9.20;99.90;;;;;;5039592;28;20176;-75
2023/12/07 07:37:41;;;;;;;0.50;0.20;;;8.90;99.90;;;;;;5046638;28;20206;-74
2023/12/07 07:40:11;;;;;;;0.50;0.40;;;9.10;99.90;;;;;;5050088;28;20181;-74
2023/12/07 07:42:40;;;;;;;3.30;0.50;;;8.90;99.90;;;;;;5046966;28;20993;-76
2023/12/07 07:45:07;;;;;;;1.13;0.37;;;8.90;99.90;;;;;;5049525;28;20209;-75
2023/12/07 07:47:32;;;;;;;1.30;0.43;;;9.00;99.90;;;;;;5046180;28;20173;-73
2023/12/07 07:49:58;;;;;;;1.30;0.60;;;9.00;99.90;;;;;;5049890;28;20510;-74
2023/12/07 07:52:24;;;;;;;1.33;0.60;;;9.40;99.90;;;;;;5049908;28;20193;-73
2023/12/07 07:54:50;;;;;;;2.50;0.43;;;9.40;99.90;;;;;;5045214;28;20177;-73
2023/12/07 07:57:16;;;;;;;2.43;0.53;;;8.90;99.90;;;;;;5046695;28;20225;-73
2023/12/07 07:59:42;;;;;;;1.37;0.57;;;8.80;99.90;;;;;;5046172;28;20177;-74
2023/12/07 08:02:07;;;;;;;1.63;0.50;;;8.90;99.90;;;;;;5049885;28;20182;-75
2023/12/07 08:04:33;;;;;;;0.30;0.30;;;8.70;99.90;;;;;;5066529;28;20181;-73
2023/12/07 08:06:59;;;;;;;1.90;0.43;;;8.70;99.90;;;;;;5057168;28;20675;-75
2023/12/07 08:09:24;;;;;;;2.13;0.40;;;8.90;99.90;;;;;;5047737;28;20192;-76
2023/12/07 08:11:50;;;;;;;3.43;0.70;;;9.10;99.90;;;;;;5049343;28;20181;-74
2023/12/07 08:14:16;;;;;;;0.87;0.40;;;8.90;99.90;;;;;;5045579;28;20188;-75
2023/12/07 08:16:46;;;;;;;0.30;0.20;;;8.90;99.90;;;;;;5046658;28;20648;-74
2023/12/07 08:19:12;;;;;;;3.57;0.90;;;9.00;99.90;;;;;;5047719;28;20556;-75
2023/12/07 08:21:38;;;;;;;1.10;0.60;;;9.10;99.90;;;;;;5047295;28;20185;-75
2023/12/07 08:24:05;;;;;;;2.67;0.67;;;;;;;;;;5045357;28;20188;-74
2023/12/07 08:26:31;;;;;;;0.20;0.20;;;8.70;99.90;;;;;;5046564;28;20216;-75
2023/12/07 08:28:57;;;;;;;1.57;0.47;;;8.60;99.90;;;;;;5048899;28;20212;-75
2023/12/07 08:31:24;;;;;;;1.93;0.50;;;8.80;99.90;;;;;;5045993;28;20652;-75
2023/12/07 08:33:50;;;;;;;1.50;0.70;;;8.80;99.90;;;;;;5047534;28;20582;-77
2023/12/07 08:36:16;;;;;;;1.27;0.60;;;8.80;99.90;;;;;;5027406;28;20568;-76
2023/12/07 08:38:42;;;;;;;1.40;0.60;;;9.10;99.90;;;;;;5047808;28;20181;-75
2023/12/07 08:41:08;;;;;;;3.60;0.60;;;8.80;99.90;;;;;;5048492;28;20252;-73
2023/12/07 08:43:33;;;;;;;1.30;0.70;;;8.60;99.90;;;;;;5053428;28;20181;-77
2023/12/07 08:45:59;;;;;;;1.07;0.40;;;8.80;99.90;;;;;;5050524;28;20588;-77
2023/12/07 08:48:25;;;;;;;1.43;0.60;;;;;;;;;;5047882;28;20659;-77
2023/12/07 08:50:51;;;;;;;1.17;0.60;;;8.70;99.90;;;;;;5046864;28;20200;-74
2023/12/07 08:53:17;;;;;;;1.40;0.50;;;8.90;99.90;;;;;;5046019;28;20682;-74
2023/12/07 08:55:42;;;;;;;0.60;0.40;;;8.70;99.90;;;;;;5048064;28;20212;-74
2023/12/07 08:58:10;;;;;;;1.13;0.60;;;8.80;99.90;;;;;;5045350;28;20181;-74
2023/12/07 09:00:36;;;;;;;2.70;0.50;;;8.80;99.90;;;;;;5027277;28;20199;-73
2023/12/07 09:03:02;;;;;;;1.33;0.50;;;;;;;;;;5045002;28;20189;-73
2023/12/07 09:05:28;;;;;;;0.60;0.47;;;9.00;99.90;;;;;;5049483;28;20177;-72
2023/12/07 09:07:53;;;;;;;1.33;0.47;;;8.70;99.90;;;;;;5047699;28;20667;-74
2023/12/07 09:10:19;;;;;;;3.07;0.90;;;8.90;99.90;;;;;;5048110;28;20177;-74
2023/12/07 09:12:45;;;;;;;1.27;0.43;;;;;;;;;;5047647;28;20181;-74
2023/12/07 09:15:12;;;;;;;1.13;0.50;;;8.90;99.90;;;;;;5045606;28;20235;-73
2023/12/07 09:17:38;;;;;;;0.97;0.33;;;;;;;;;;5044212;28;20735;-74
2023/12/07 09:20:14;;;;;;;0.60;0.37;;;9.10;99.90;;;;;;5046041;28;20200;-74
2023/12/07 09:22:44;;;;;;;1.63;0.40;;;9.00;99.90;;;;;;5043442;28;20188;-74
2023/12/07 09:25:11;;;;;;;1.83;0.60;;;8.90;99.90;;;;;;5047910;28;20673;-76
2023/12/07 09:27:38;;;;;;;1.10;0.30;;;8.90;99.90;;;;;;5029259;28;20639;-76
2023/12/07 09:30:10;;;;;;;2.20;0.47;;;8.80;99.90;;;;;;5046621;28;20267;-75
2023/12/07 09:32:38;;;;;;;0.77;0.30;;;8.90;99.90;;;;;;5043592;28;20181;-74
2023/12/07 09:35:07;;;;;;;0.83;0.33;;;8.90;99.90;;;;;;5045276;28;20181;-73
2023/12/07 09:37:34;;;;;;;1.57;0.53;;;9.20;99.90;;;;;;5039184;28;20240;-74
2023/12/07 09:40:00;;;;;;;1.13;0.33;;;8.90;99.90;;;;;;5026200;28;20203;-75
2023/12/07 09:42:26;;;;;;;1.23;0.40;;;9.10;99.90;;;;;;5046246;28;20300;-75
2023/12/07 09:44:52;;;;;;;1.50;0.27;;;8.70;99.90;;;;;;5043074;28;20760;-75
2023/12/07 09:47:18;;;;;;;1.93;0.47;;;8.70;99.90;;;;;;5043955;28;20185;-75
2023/12/07 09:49:44;;;;;;;0.90;0.30;;;8.90;99.90;;;;;;5043199;28;20175;-75
2023/12/07 09:52:11;;;;;;;4.00;0.40;;;8.80;99.90;;;;;;5053227;28;20201;-75
2023/12/07 09:54:41;;;;;;;0.87;0.30;;;8.80;99.90;;;;;;5049349;28;20215;-76
2023/12/07 09:57:09;;;;;;;0.90;0.30;;;8.80;99.90;;;;;;5045309;28;20303;-76
2023/12/07 09:59:36;;;;;;;0.83;0.10;;;8.50;99.90;;;;;;5048073;28;20269;-74
2023/12/07 10:02:02;;;;;;;0.57;0.30;;;8.70;99.90;;;;;;5049378;28;20192;-76
2023/12/07 10:04:27;;;;;;;0.20;0.10;;;8.60;99.90;;;;;;5032112;28;20184;-73
2023/12/07 10:06:54;;;;;;;0.63;0.30;;;8.50;99.90;;;;;;5050457;28;20181;-74
2023/12/07 10:09:21;;;;;;;1.33;0.50;;;8.70;99.90;;;;;;5048099;28;20177;-74
2023/12/07 10:11:47;;;;;;;1.10;0.30;;;8.60;99.90;;;;;;5052706;28;20191;-74
2023/12/07 10:14:13;;;;;;;1.10;0.43;;;8.60;99.90;;;;;;5048664;28;20204;-74
2023/12/07 10:16:52;;;;;;;1.13;0.50;;;8.50;99.90;;;;;;5048000;28;20209;-73
2023/12/07 10:19:21;;;;;;;3.53;0.63;;;8.60;99.90;;;;;;5051337;28;20207;-73
2023/12/07 10:21:47;;;;;;;3.40;0.70;;;8.60;99.90;;;;;;5048879;28;20235;-74
2023/12/07 10:24:13;;;;;;;0.80;0.30;;;8.50;99.90;;;;;;5048695;28;20269;-74
2023/12/07 10:26:39;;;;;;;1.83;0.60;;;8.10;99.90;;;;;;5048273;28;20256;-74
2023/12/07 10:29:05;;;;;;;1.47;0.43;;;8.80;99.90;;;;;;5052920;28;20331;-74
2023/12/07 10:31:32;;;;;;;3.73;0.70;;;8.00;99.90;;;;;;5061132;28;20256;-73
2023/12/07 10:33:59;;;;;;;1.50;0.50;;;8.10;99.90;;;;;;5073954;28;20176;-73
2023/12/07 10:36:25;;;;;;;1.70;0.57;;;8.70;99.90;;;;;;5051099;28;20209;-75
2023/12/07 10:38:52;;;;;;;1.53;0.57;;;8.20;99.90;;;;;;5049966;28;20675;-73
2023/12/07 10:41:23;;;;;;;3.80;0.90;;;10.20;99.90;;;;;;5048609;28;20695;-74
2023/12/07 10:44:03;;;;;;;5.03;0.80;;;8.60;99.90;;;;;;5050434;28;20192;-73
2023/12/07 10:46:32;;;;;;;4.20;0.80;;;8.30;99.90;;;;;;5047001;28;20668;-74
2023/12/07 10:49:03;;;;;;;3.53;0.70;;;8.50;99.90;;;;;;5048778;28;20266;-73
2023/12/07 10:51:41;;;;;;;7.63;1.03;;;8.40;99.90;;;;;;5046887;28;20181;-74
2023/12/07 10:54:08;;;;;;;3.53;1.00;;;8.10;99.90;;;;;;5044729;28;20204;-75
2023/12/07 10:56:45;;;;;;;4.37;0.97;;;8.30;99.90;;;;;;5046443;28;20208;-75
2023/12/07 10:59:13;;;;;;;5.77;1.23;;;8.70;99.90;;;;;;5047788;28;20264;-76
2023/12/07 11:01:40;;;;;;;3.03;0.87;;;10.20;99.90;;;;;;5046407;28;20244;-76
2023/12/07 11:04:06;;;;;;;2.77;0.90;;;8.20;99.90;;;;;;5050203;28;20181;-75
2023/12/07 11:06:36;;;;;;;0.30;0.30;;;8.40;99.90;;;;;;5027660;28;20184;-76
2023/12/07 11:09:05;;;;;;;4.20;0.77;;;8.20;99.90;;;;;;5035574;28;20177;-76
2023/12/07 11:11:46;;;;;;;3.50;1.00;;;8.30;99.90;;;;;;5045458;28;20178;-75
2023/12/07 11:14:14;;;;;;;4.57;1.43;;;8.50;99.90;;;;;;5044156;28;20177;-75
2023/12/07 11:16:42;;;;;;;2.33;0.80;;;8.50;99.90;;;;;;5046098;28;20263;-75
2023/12/07 11:19:32;;;;;;;2.57;0.47;;;8.50;99.90;;;;;;5047556;28;20192;-76
2023/12/07 11:21:58;;;;;;;2.77;0.60;;;8.70;99.90;;;;;;5044684;28;20169;-77
2023/12/07 11:24:24;;;;;;;2.77;0.87;;;8.30;99.90;;;;;;5050205;28;20181;-78
2023/12/07 11:26:55;;;;;;;2.23;0.60;;;8.50;99.90;;;;;;5046849;28;20173;-77
2023/12/07 11:29:23;;;;;;;1.17;0.47;;;8.50;99.90;;;;;;5047509;28;20228;-77
2023/12/07 11:31:50;;;;;;;1.67;0.40;;;8.50;99.90;;;;;;5036977;28;20185;-77
2023/12/07 11:34:40;;;;;;;2.00;0.73;;;8.40;99.90;;;;;;5051112;28;20249;-77
2023/12/07 11:37:07;;;;;;;2.60;0.50;;;8.50;99.90;;;;;;5033066;28;20224;-77
2023/12/07 11:39:41;;;;;;;1.43;0.60;;;8.50;99.90;;;;;;5049198;28;20243;-77
2023/12/07 11:42:10;;;;;;;0.77;0.40;;;8.60;99.90;;;;;;5047921;28;20223;-75
2023/12/07 11:44:46;;;;;;;0.80;0.30;;;8.30;99.90;;;;;;5045654;28;20490;-76
2023/12/07 11:47:16;;;;;;;0.90;0.37;;;8.50;99.90;;;;;;5047335;28;20176;-76
2023/12/07 11:49:43;;;;;;;1.33;0.40;;;8.50;99.90;;;;;;5047781;28;20631;-77
2023/12/07 11:52:16;;;;;;;0.73;0.50;;;8.30;99.90;;;;;;5048130;28;20173;-77
2023/12/07 11:54:47;;;;;;;0.20;0.20;;;8.60;99.90;;;;;;5044880;28;20177;-77
2023/12/07 11:57:14;;;;;;;0.57;0.13;;;8.30;99.90;;;;;;5027644;28;20213;-77
2023/12/07 11:59:41;;;;;;;0.40;0.30;;;8.30;99.90;;;;;;5048047;28;20231;-76
2023/12/07 12:02:06;;;;;;;0.70;0.20;;;8.40;99.90;;;;;;5047403;28;20204;-80
2023/12/07 12:04:32;;;;;;;0.90;0.30;;;8.40;99.90;;;;;;5045604;28;20174;-77
2023/12/07 12:06:58;;;;;;;1.80;0.30;;;;;;;;;;5048936;28;20185;-79
2023/12/07 12:09:24;;;;;;;2.00;0.57;;;8.30;99.90;;;;;;5046767;28;20184;-79
2023/12/07 12:11:50;;;;;;;1.40;0.40;;;8.60;99.90;;;;;;5045347;28;20173;-77
2023/12/07 12:14:20;;;;;;;0.30;0.10;;;8.50;99.90;;;;;;5046041;28;20703;-77
2023/12/07 12:16:46;;;;;;;0.60;0.30;;;8.50;99.90;;;;;;5024046;28;20289;-78
2023/12/07 12:19:14;;;;;;;1.13;0.30;;;8.50;99.90;;;;;;5049582;28;20267;-79
2023/12/07 12:21:40;;;;;;;1.47;0.40;;;8.60;99.90;;;;;;5044845;28;20182;-77
2023/12/07 12:24:07;;;;;;;2.53;0.50;;;8.50;99.90;;;;;;5031278;28;20216;-78
2023/12/07 12:26:38;;;;;;;1.30;0.40;;;8.40;99.90;;;;;;5026129;28;20661;-76
2023/12/07 12:29:06;;;;;;;2.60;0.37;;;8.50;99.90;;;;;;5046292;28;20193;-76
2023/12/07 12:31:31;;;;;;;0.57;0.33;;;8.50;99.90;;;;;;5046511;28;20706;-75
2023/12/07 12:33:57;;;;;;;0.53;0.17;;;8.20;99.90;;;;;;5047555;28;20270;-77
2023/12/07 12:36:26;;;;;;;0.30;0.10;;;8.30;99.90;;;;;;5027357;28;20213;-78
2023/12/07 12:38:52;;;;;;;0.70;0.10;;;8.20;99.90;;;;;;5049839;28;20651;-77
2023/12/07 12:41:22;;;;;;;0.80;0.27;;;8.50;99.90;;;;;;5047875;28;20212;-77
2023/12/07 12:43:48;;;;;;;1.13;0.23;;;8.20;99.90;;;;;;5046293;28;20177;-78
2023/12/07 12:46:15;;;;;;;0.90;0.20;;;8.40;99.90;;;;;;5045929;28;20192;-77
2023/12/07 12:49:01;;;;;;;0.60;0.20;;;8.50;99.90;;;;;;5022939;28;20199;-77
2023/12/07 12:51:31;;;;;;;0.43;0.10;;;8.40;99.90;;;;;;5045954;28;20197;-74
2023/12/07 12:53:59;;;;;;;1.70;0.40;;;8.60;99.90;;;;;;5050004;28;21796;-75
2023/12/07 12:56:26;;;;;;;0.30;0.10;;;8.40;99.90;;;;;;5047958;28;20209;-75
2023/12/07 12:58:55;;;;;;;0.60;0.20;;;8.40;99.90;;;;;;5048199;28;20242;-75